Time;durP1;ratioP1;P1;durP2;ratioP2;P2;SDS_P1;SDS_P2;PMS_P1;PMS_P2;Temp;Humidity;BMP_temperature;BMP_pressure;BME280_temperature;BME280_humidity;BME280_pressure;Samples;Min_cycle;Max_cycle;Signal;HPM_P1;HPM_P2
2021/09/21 00:01:06;;;;;;;6.93;4.37;;;;;;;;;;5118414;28;20471;-71
2021/09/21 00:03:38;;;;;;;7.30;4.00;;;;;;;;;;5118370;28;20727;-72
2021/09/21 00:06:07;;;;;;;5.50;4.23;;;;;;;;;;5118283;28;20737;-71
2021/09/21 00:08:38;;;;;;;6.27;4.17;;;;;;;;;;5118134;28;20466;-72
2021/09/21 00:11:06;;;;;;;6.47;4.73;;;;;;;;;;5118404;28;20579;-71
2021/09/21 00:13:35;;;;;;;6.70;5.17;;;;;;;;;;5118722;28;20473;-71
2021/09/21 00:16:03;;;;;;;7.17;4.33;;;;;;;;;;5117545;28;20520;-72
2021/09/21 00:18:31;;;;;;;6.53;5.03;;;;;;;;;;5118151;28;20494;-72
2021/09/21 00:20:59;;;;;;;5.40;4.60;;;;;;;;;;5118522;28;20439;-71
2021/09/21 00:23:27;;;;;;;7.60;3.97;;;;;;;;;;5117907;28;20526;-71
2021/09/21 00:25:57;;;;;;;7.70;4.03;;;;;;;;;;5118010;28;20454;-71
2021/09/21 00:28:25;;;;;;;6.80;4.70;;;;;;;;;;5118247;28;20465;-70
2021/09/21 00:31:03;;;;;;;6.83;4.93;;;;;;;;;;5117768;28;20457;-71
2021/09/21 00:33:35;;;;;;;8.87;4.53;;;;;;;;;;5117944;28;20569;-71
2021/09/21 00:36:03;;;;;;;7.77;4.50;;;;;;;;;;5117818;28;20862;-71
2021/09/21 00:38:31;;;;;;;8.03;5.37;;;;;;;;;;5117691;28;20455;-71
2021/09/21 00:41:01;;;;;;;8.00;4.40;;;;;;;;;;5118340;28;20742;-71
2021/09/21 00:43:29;;;;;;;5.80;4.27;;;;;;;;;;5117635;28;20439;-71
2021/09/21 00:45:57;;;;;;;6.47;4.00;;;;;;;;;;5117470;28;20450;-71
2021/09/21 00:48:24;;;;;;;4.83;4.30;;;;;;;;;;5117758;28;20553;-71
2021/09/21 00:50:53;;;;;;;6.30;4.40;;;;;;;;;;5117749;28;20450;-71
2021/09/21 00:53:21;;;;;;;8.30;5.07;;;;;;;;;;5117725;28;20712;-71
2021/09/21 00:55:49;;;;;;;6.50;3.87;;;;;;;;;;5117965;28;20450;-70
2021/09/21 00:58:18;;;;;;;15.00;4.70;;;;;;;;;;5117264;28;20451;-71
2021/09/21 01:00:46;;;;;;;6.23;4.17;;;;;;;;;;5117304;28;20504;-70
2021/09/21 01:03:17;;;;;;;7.87;4.57;;;;;;;;;;5117484;28;20455;-70
2021/09/21 01:05:45;;;;;;;6.97;4.80;;;;;;;;;;5117365;28;20443;-71
2021/09/21 01:08:13;;;;;;;7.23;3.93;;;;;;;;;;5117642;28;20482;-71
2021/09/21 01:10:44;;;;;;;5.90;3.90;;;;;;;;;;5117842;28;20457;-72
2021/09/21 01:13:13;;;;;;;7.50;4.97;;;;;;;;;;5117832;28;20454;-71
2021/09/21 01:15:44;;;;;;;6.20;3.90;;;;;;;;;;5118319;28;21052;-70
2021/09/21 01:18:12;;;;;;;8.63;4.87;;;;;;;;;;5117033;28;20454;-72
2021/09/21 01:20:40;;;;;;;5.60;4.03;;;;;;;;;;5117352;28;20466;-72
2021/09/21 01:23:10;;;;;;;6.97;4.67;;;;;;;;;;5117481;28;20457;-72
2021/09/21 01:25:38;;;;;;;7.50;4.80;;;;;;;;;;5117062;28;20467;-72
2021/09/21 01:28:07;;;;;;;10.17;5.53;;;;;;;;;;5117177;28;20478;-72
2021/09/21 01:30:35;;;;;;;5.77;4.50;;;;;;;;;;5116923;28;20822;-72
2021/09/21 01:33:02;;;;;;;9.00;4.27;;;;;;;;;;5116528;28;20810;-72
2021/09/21 01:35:33;;;;;;;5.20;4.27;;;;;;;;;;5116488;28;20861;-71
2021/09/21 01:38:01;;;;;;;9.20;4.47;;;;;;;;;;5116994;28;20454;-72
2021/09/21 01:40:30;;;;;;;5.80;4.00;;;;;;;;;;5116430;28;20455;-72
2021/09/21 01:42:58;;;;;;;6.53;4.10;;;;;;;;;;5116869;28;20451;-72
2021/09/21 01:45:29;;;;;;;7.50;4.60;;;;;;;;;;5116827;28;20446;-72
2021/09/21 01:47:59;;;;;;;7.23;4.00;;;;;;;;;;5116185;28;20882;-71
2021/09/21 01:53:18;;;;;;;5.53;4.07;;;;;;;;;;5116126;27;20429;-72
2021/09/21 01:58:49;;;;;;;8.60;4.87;;;;;;;;;;5116214;28;20565;-71
2021/09/21 02:01:19;;;;;;;6.90;5.33;;;;;;;;;;5116818;28;20458;-71
2021/09/21 02:03:47;;;;;;;8.60;4.30;;;;;;;;;;5117009;28;20457;-72
2021/09/21 02:06:18;;;;;;;6.07;3.87;;;;;;;;;;5116643;27;20895;-72
2021/09/21 02:08:47;;;;;;;6.90;4.27;;;;;;;;;;5116719;28;21073;-72
2021/09/21 02:11:17;;;;;;;5.77;4.23;;;;;;;;;;5116942;28;20450;-72
2021/09/21 02:13:46;;;;;;;8.60;4.23;;;;;;;;;;5116795;28;20443;-71
2021/09/21 02:16:17;;;;;;;7.30;6.07;;;;;;;;;;5116562;28;20461;-72
2021/09/21 02:18:45;;;;;;;8.27;5.07;;;;;;;;;;5116884;28;20438;-72
2021/09/21 02:21:13;;;;;;;6.53;4.30;;;;;;;;;;5116927;28;20439;-72
2021/09/21 02:23:41;;;;;;;8.23;4.90;;;;;;;;;;5116932;28;20847;-72
2021/09/21 02:26:08;;;;;;;6.17;4.80;;;;;;;;;;5116822;28;20458;-72
2021/09/21 02:28:42;;;;;;;5.10;4.50;;;;;;;;;;5116656;28;20482;-72
2021/09/21 02:31:10;;;;;;;5.77;4.60;;;;;;;;;;5116464;28;20730;-71
2021/09/21 02:33:38;;;;;;;8.60;4.60;;;;;;;;;;5115781;28;20806;-72
2021/09/21 02:36:09;;;;;;;5.50;4.40;;;;;;;;;;5115636;28;20843;-72
2021/09/21 02:38:38;;;;;;;9.77;5.73;;;;;;;;;;5115330;28;20447;-72
2021/09/21 02:41:06;;;;;;;8.07;4.90;;;;;;;;;;5115907;28;20876;-72
2021/09/21 02:43:35;;;;;;;8.80;5.00;;;;;;;;;;5115600;28;20447;-72
2021/09/21 02:46:04;;;;;;;7.40;4.60;;;;;;;;;;5116272;28;20526;-72
2021/09/21 02:48:33;;;;;;;10.03;5.37;;;;;;;;;;5118831;28;20478;-72
2021/09/21 02:51:01;;;;;;;8.87;4.93;;;;;;;;;;5120059;28;20529;-72
2021/09/21 02:53:29;;;;;;;7.47;4.53;;;;;;;;;;5120529;28;20461;-72
2021/09/21 02:55:57;;;;;;;8.63;5.20;;;;;;;;;;5120288;28;20834;-72
2021/09/21 02:58:25;;;;;;;9.50;5.07;;;;;;;;;;5119916;28;20443;-72
2021/09/21 03:00:55;;;;;;;7.40;5.20;;;;;;;;;;5119482;28;20542;-72
2021/09/21 03:03:29;;;;;;;8.40;5.33;;;;;;;;;;5119816;28;20462;-71
2021/09/21 03:06:00;;;;;;;7.83;4.77;;;;;;;;;;5119442;28;20510;-72
2021/09/21 03:08:30;;;;;;;5.93;3.80;;;;;;;;;;5119649;28;20489;-71
2021/09/21 03:11:12;;;;;;;6.50;4.80;;;;;;;;;;5119903;28;20443;-72
2021/09/21 03:19:11;;;;;;;7.13;5.17;;;;;;;;;;5119033;28;20759;-70
2021/09/21 03:21:44;;;;;;;8.30;4.70;;;;;;;;;;5119179;28;20446;-71
2021/09/21 03:24:21;;;;;;;6.33;4.57;;;;;;;;;;5119516;28;20485;-72
2021/09/21 03:26:49;;;;;;;8.60;4.83;;;;;;;;;;5119507;28;20873;-72
2021/09/21 03:29:17;;;;;;;7.00;4.90;;;;;;;;;;5118578;28;20535;-72
2021/09/21 03:31:57;;;;;;;8.33;4.90;;;;;;;;;;5119785;28;20458;-72
2021/09/21 03:34:26;;;;;;;7.33;4.20;;;;;;;;;;5119595;28;20541;-72
2021/09/21 03:36:54;;;;;;;8.20;4.90;;;;;;;;;;5118829;28;20470;-72
2021/09/21 03:39:23;;;;;;;7.50;5.40;;;;;;;;;;5119653;28;20523;-72
2021/09/21 03:41:57;;;;;;;9.33;5.00;;;;;;;;;;5119814;28;20469;-72
2021/09/21 03:44:26;;;;;;;7.80;4.20;;;;;;;;;;5119597;28;20707;-72
2021/09/21 03:46:54;;;;;;;6.53;5.00;;;;;;;;;;5119766;28;20462;-72
2021/09/21 03:49:22;;;;;;;8.10;5.27;;;;;;;;;;5119004;28;20486;-72
2021/09/21 03:51:52;;;;;;;6.30;4.83;;;;;;;;;;5119934;28;20482;-72
2021/09/21 03:54:21;;;;;;;5.90;4.70;;;;;;;;;;5119398;28;20447;-72
2021/09/21 03:56:48;;;;;;;10.33;6.40;;;;;;;;;;5118455;28;20463;-73
2021/09/21 03:59:19;;;;;;;8.10;5.10;;;;;;;;;;5117284;28;20447;-72
2021/09/21 04:01:47;;;;;;;6.47;4.50;;;;;;;;;;5118295;28;20458;-72
2021/09/21 04:04:15;;;;;;;10.57;4.80;;;;;;;;;;5117380;28;20474;-73
2021/09/21 04:06:43;;;;;;;6.07;4.13;;;;;;;;;;5118904;28;20802;-72
2021/09/21 04:09:16;;;;;;;7.87;5.50;;;;;;;;;;5119308;28;20529;-72
2021/09/21 04:11:44;;;;;;;8.60;4.80;;;;;;;;;;5119294;28;20549;-71
2021/09/21 04:14:14;;;;;;;6.37;4.70;;;;;;;;;;5118067;28;20443;-71
2021/09/21 04:16:48;;;;;;;4.83;3.50;;;;;;;;;;5118293;28;20458;-71
2021/09/21 04:19:16;;;;;;;6.60;4.67;;;;;;;;;;5117274;28;20541;-71
2021/09/21 04:21:45;;;;;;;8.50;4.70;;;;;;;;;;5117834;28;20476;-72
2021/09/21 04:24:14;;;;;;;5.13;4.13;;;;;;;;;;5117996;28;20454;-71
2021/09/21 04:26:43;;;;;;;9.93;4.47;;;;;;;;;;5118912;28;20467;-71
2021/09/21 04:29:11;;;;;;;8.17;5.57;;;;;;;;;;5118880;28;20482;-71
2021/09/21 04:31:42;;;;;;;8.33;4.57;;;;;;;;;;5117920;28;20450;-71
2021/09/21 04:34:14;;;;;;;6.40;3.80;;;;;;;;;;5116712;28;20464;-72
2021/09/21 04:36:44;;;;;;;6.87;4.37;;;;;;;;;;5118435;28;20742;-71
2021/09/21 04:39:17;;;;;;;7.93;5.83;;;;;;;;;;5117730;28;20530;-72
2021/09/21 04:41:45;;;;;;;8.50;4.97;;;;;;;;;;5116977;28;20477;-72
2021/09/21 04:44:15;;;;;;;8.50;5.20;;;;;;;;;;5117372;28;20512;-71
2021/09/21 04:46:49;;;;;;;6.93;4.60;;;;;;;;;;5117872;28;20949;-71
2021/09/21 04:49:19;;;;;;;8.37;5.70;;;;;;;;;;5117215;28;20482;-72
2021/09/21 04:51:47;;;;;;;8.40;5.33;;;;;;;;;;5117597;28;20531;-71
2021/09/21 04:54:18;;;;;;;5.90;4.67;;;;;;;;;;5117440;28;20457;-72
2021/09/21 04:56:46;;;;;;;6.20;4.40;;;;;;;;;;5117551;28;20726;-71
2021/09/21 04:59:14;;;;;;;7.60;5.30;;;;;;;;;;5124706;27;20494;-71
2021/09/21 05:01:43;;;;;;;5.20;3.83;;;;;;;;;;5117437;28;20471;-71
2021/09/21 05:04:11;;;;;;;6.67;4.67;;;;;;;;;;5117927;28;20860;-70
2021/09/21 05:06:39;;;;;;;7.47;5.40;;;;;;;;;;5115880;28;20465;-72
2021/09/21 05:09:13;;;;;;;6.13;4.93;;;;;;;;;;5114853;28;20583;-71
2021/09/21 05:11:45;;;;;;;7.53;5.47;;;;;;;;;;5116166;28;20916;-72
2021/09/21 05:14:15;;;;;;;5.70;4.53;;;;;;;;;;5116145;28;20461;-72
2021/09/21 05:16:44;;;;;;;10.57;6.43;;;;;;;;;;5115134;28;20451;-73
2021/09/21 05:19:12;;;;;;;6.40;4.83;;;;;;;;;;5115120;27;20438;-71
2021/09/21 05:21:41;;;;;;;5.83;4.10;;;;;;;;;;5114944;28;20546;-72
2021/09/21 05:24:10;;;;;;;5.93;4.13;;;;;;;;;;5114868;28;20447;-72
2021/09/21 05:26:38;;;;;;;9.10;4.60;;;;;;;;;;5114268;28;20462;-72
2021/09/21 05:29:07;;;;;;;6.97;5.30;;;;;;;;;;5112839;28;20928;-72
2021/09/21 05:31:36;;;;;;;7.10;5.50;;;;;;;;;;5114334;28;20487;-71
2021/09/21 05:34:04;;;;;;;9.33;5.60;;;;;;;;;;5115328;28;20461;-73
2021/09/21 05:36:33;;;;;;;8.90;5.03;;;;;;;;;;5114469;28;20465;-71
2021/09/21 05:39:16;;;;;;;8.00;5.40;;;;;;;;;;5113336;28;20443;-70
2021/09/21 05:41:44;;;;;;;11.17;6.47;;;;;;;;;;5110984;28;20554;-71
2021/09/21 05:44:14;;;;;;;8.30;5.50;;;;;;;;;;5113303;28;20471;-72
2021/09/21 05:47:11;;;;;;;7.07;5.13;;;;;;;;;;5114868;27;20991;-71
2021/09/21 05:49:39;;;;;;;7.13;5.13;;;;;;;;;;5115616;28;20482;-71
2021/09/21 05:52:07;;;;;;;9.13;5.90;;;;;;;;;;5115968;28;20712;-72
2021/09/21 05:54:35;;;;;;;9.27;6.43;;;;;;;;;;5115094;28;21035;-72
2021/09/21 05:57:03;;;;;;;7.73;6.23;;;;;;;;;;5116525;28;20469;-72
2021/09/21 05:59:32;;;;;;;6.47;5.13;;;;;;;;;;5115403;28;20553;-72
2021/09/21 06:02:00;;;;;;;7.33;4.90;;;;;;;;;;5115988;28;20462;-71
2021/09/21 06:04:28;;;;;;;7.03;5.97;;;;;;;;;;5095300;28;20519;-71
2021/09/21 06:06:56;;;;;;;9.37;5.30;;;;;;;;;;5094160;28;20500;-71
2021/09/21 06:09:23;;;;;;;7.90;5.60;;;;;;;;;;5092982;28;20588;-71
2021/09/21 06:11:51;;;;;;;8.60;5.70;;;;;;;;;;5093855;28;20521;-72
2021/09/21 06:14:19;;;;;;;8.33;6.13;;;;;;;;;;5093500;28;20482;-72
2021/09/21 06:16:48;;;;;;;14.70;5.50;;;;;;;;;;5094635;28;20460;-71
2021/09/21 06:19:17;;;;;;;11.33;5.20;;;;;;;;;;5093525;28;20497;-70
2021/09/21 06:21:44;;;;;;;9.07;6.07;;;;;;;;;;5105805;28;20455;-72
2021/09/21 06:24:12;;;;;;;7.90;5.20;;;;;;;;;;5113989;28;20503;-71
2021/09/21 06:26:41;;;;;;;8.33;6.17;;;;;;;;;;5114527;28;20455;-72
2021/09/21 06:29:11;;;;;;;7.90;5.70;;;;;;;;;;5114166;28;20938;-73
2021/09/21 06:31:47;;;;;;;9.47;6.20;;;;;;;;;;5113680;28;20486;-72
2021/09/21 06:34:19;;;;;;;11.70;6.10;;;;;;;;;;5114192;28;20458;-72
2021/09/21 06:36:47;;;;;;;8.07;5.83;;;;;;;;;;5114249;28;20466;-72
2021/09/21 06:39:17;;;;;;;10.47;6.33;;;;;;;;;;5114953;28;20450;-71
2021/09/21 06:41:45;;;;;;;7.17;6.00;;;;;;;;;;5114524;28;20803;-71
2021/09/21 06:44:13;;;;;;;12.43;6.20;;;;;;;;;;5114087;28;20490;-73
2021/09/21 06:46:44;;;;;;;8.53;5.43;;;;;;;;;;5114937;28;20443;-70
2021/09/21 06:49:13;;;;;;;12.87;7.27;;;;;;;;;;5113919;28;20479;-71
2021/09/21 06:51:43;;;;;;;7.77;5.50;;;;;;;;;;5114379;28;20543;-71
2021/09/21 06:54:11;;;;;;;13.53;7.67;;;;;;;;;;5113411;28;20747;-71
2021/09/21 06:56:39;;;;;;;8.60;6.10;;;;;;;;;;5113818;28;20462;-71
2021/09/21 06:59:07;;;;;;;7.73;4.40;;;;;;;;;;5113246;28;20449;-71
2021/09/21 07:01:47;;;;;;;8.07;6.13;;;;;;;;;;5113463;28;20438;-73
2021/09/21 07:04:14;;;;;;;7.40;6.10;;;;;;;;;;5113726;28;20477;-71
2021/09/21 07:06:46;;;;;;;7.13;5.53;;;;;;;;;;5113178;28;20442;-73
2021/09/21 07:09:14;;;;;;;8.83;6.13;;;;;;;;;;5114536;28;20751;-72
2021/09/21 07:11:42;;;;;;;10.43;6.37;;;;;;;;;;5112903;28;20446;-72
2021/09/21 07:14:18;;;;;;;8.47;4.77;;;;;;;;;;5112724;28;20462;-73
2021/09/21 07:17:00;;;;;;;11.07;7.03;;;;;;;;;;5113314;28;20463;-72
2021/09/21 07:19:28;;;;;;;7.83;5.30;;;;;;;;;;5112356;28;20494;-72
2021/09/21 07:22:10;;;;;;;9.73;7.00;;;;;;;;;;5112426;28;20458;-73
2021/09/21 07:24:45;;;;;;;7.53;5.00;;;;;;;;;;5112359;28;20449;-72
2021/09/21 07:27:14;;;;;;;7.23;4.57;;;;;;;;;;5113643;28;20481;-71
2021/09/21 07:29:51;;;;;;;10.47;5.60;;;;;;;;;;5113944;28;20479;-72
2021/09/21 07:35:09;;;;;;;7.90;5.40;;;;;;;;;;5114198;28;20419;-73
2021/09/21 07:37:41;;;;;;;7.67;4.47;;;;;;;;;;5117218;28;20450;-73
2021/09/21 07:40:35;;;;;;;8.47;4.60;;;;;;;;;;5114291;28;20442;-74
2021/09/21 07:43:09;;;;;;;9.23;5.83;;;;;;;;;;5116655;28;20516;-73
2021/09/21 07:45:37;;;;;;;8.03;5.23;;;;;;;;;;5117115;28;20529;-73
2021/09/21 07:48:05;;;;;;;8.83;4.67;;;;;;;;;;5117228;28;20459;-71
2021/09/21 07:50:33;;;;;;;7.27;5.07;;;;;;;;;;5116432;28;20508;-73
2021/09/21 07:53:01;;;;;;;10.60;5.07;;;;;;;;;;5116363;28;20493;-72
2021/09/21 07:55:31;;;;;;;5.63;4.40;;;;;;;;;;5116894;28;20451;-73
2021/09/21 07:57:59;;;;;;;5.83;3.90;;;;;;;;;;5116968;28;20494;-73
2021/09/21 08:00:27;;;;;;;9.07;5.67;;;;;;;;;;5116374;28;20438;-75
2021/09/21 08:02:55;;;;;;;9.70;6.30;;;;;;;;;;5116576;28;20447;-73
2021/09/21 08:05:24;;;;;;;6.10;4.70;;;;;;;;;;5113018;28;20454;-73
2021/09/21 08:07:52;;;;;;;5.07;3.90;;;;;;;;;;5115409;28;20939;-73
2021/09/21 08:10:20;;;;;;;5.30;3.93;;;;;;;;;;5115321;28;20547;-72
2021/09/21 08:12:50;;;;;;;6.77;4.33;;;;;;;;;;5116497;28;20486;-72
2021/09/21 08:15:20;;;;;;;6.67;4.80;;;;;;;;;;5117032;28;20856;-73
2021/09/21 08:17:53;;;;;;;6.13;4.53;;;;;;;;;;5116539;28;20447;-73
2021/09/21 08:20:26;;;;;;;6.10;4.47;;;;;;;;;;5115461;28;20450;-73
2021/09/21 08:22:54;;;;;;;6.80;5.00;;;;;;;;;;5115880;28;20457;-72
2021/09/21 08:25:22;;;;;;;6.33;4.93;;;;;;;;;;5115375;28;20446;-72
2021/09/21 08:27:52;;;;;;;6.00;4.00;;;;;;;;;;5114820;28;20477;-72
2021/09/21 08:30:22;;;;;;;10.10;4.40;;;;;;;;;;5096706;28;20805;-73
2021/09/21 08:32:50;;;;;;;6.60;4.37;;;;;;;;;;5095716;28;20923;-72
2021/09/21 08:35:18;;;;;;;7.10;5.00;;;;;;;;;;5095028;28;20486;-71
2021/09/21 08:37:51;;;;;;;5.97;4.03;;;;;;;;;;5094831;28;20541;-72
2021/09/21 08:40:34;;;;;;;7.47;4.50;;;;;;;;;;5093910;28;20456;-72
2021/09/21 08:43:04;;;;;;;8.23;4.40;;;;;;;;;;5107529;28;20563;-72
2021/09/21 08:45:34;;;;;;;5.87;5.20;;;;;;;;;;5116109;28;20714;-71
2021/09/21 08:48:10;;;;;;;7.50;3.67;;;;;;;;;;5115464;28;20451;-71
2021/09/21 08:50:38;;;;;;;9.20;5.10;;;;;;;;;;5114148;28;20474;-71
2021/09/21 08:53:06;;;;;;;7.40;4.37;;;;;;;;;;5113303;28;20559;-71
2021/09/21 08:55:34;;;;;;;8.50;4.50;;;;;;;;;;5114832;28;20440;-71
2021/09/21 08:58:16;;;;;;;6.00;3.80;;;;;;;;;;5116238;28;20493;-71
2021/09/21 09:00:43;;;;;;;6.83;4.40;;;;;;;;;;5115707;28;20839;-70
2021/09/21 09:03:12;;;;;;;6.20;5.03;;;;;;;;;;5116686;28;20461;-72
2021/09/21 09:05:49;;;;;;;6.87;4.93;;;;;;;;;;5117107;28;20447;-71
2021/09/21 09:08:28;;;;;;;9.43;4.67;;;;;;;;;;5116668;28;20590;-72
2021/09/21 09:10:57;;;;;;;5.77;4.23;;;;;;;;;;5115173;28;20486;-72
2021/09/21 09:13:34;;;;;;;7.40;5.40;;;;;;;;;;5116864;28;20651;-72
2021/09/21 09:16:01;;;;;;;4.40;3.80;;;;;;;;;;5115893;28;20878;-71
2021/09/21 09:18:32;;;;;;;6.33;4.20;;;;;;;;;;5115163;28;20481;-71
2021/09/21 09:21:01;;;;;;;7.60;5.60;;;;;;;;;;5115532;28;20468;-71
2021/09/21 09:23:32;;;;;;;9.87;5.67;;;;;;;;;;5115194;28;20466;-70
2021/09/21 09:26:00;;;;;;;9.60;5.87;;;;;;;;;;5112986;28;20730;-71
2021/09/21 09:28:32;;;;;;;7.13;5.73;;;;;;;;;;5113379;28;20463;-72
2021/09/21 09:31:08;;;;;;;11.03;6.87;;;;;;;;;;5114336;28;20489;-71
2021/09/21 09:33:50;;;;;;;8.20;5.53;;;;;;;;;;5114820;28;20886;-72
2021/09/21 09:36:24;;;;;;;8.27;6.07;;;;;;;;;;5114283;28;20927;-71
2021/09/21 09:39:05;;;;;;;9.33;5.90;;;;;;;;;;5114476;28;20456;-71
2021/09/21 09:41:44;;;;;;;7.20;4.27;;;;;;;;;;5115830;28;20459;-71
2021/09/21 09:44:18;;;;;;;7.17;5.23;;;;;;;;;;5114982;28;20571;-71
2021/09/21 09:47:00;;;;;;;6.57;5.10;;;;;;;;;;5115535;28;20848;-71
2021/09/21 09:49:31;;;;;;;8.33;5.27;;;;;;;;;;5115039;28;20498;-72
2021/09/21 09:52:04;;;;;;;5.90;4.17;;;;;;;;;;5113913;28;20804;-71
2021/09/21 09:54:32;;;;;;;12.60;5.40;;;;;;;;;;5115564;27;20610;-70
2021/09/21 09:57:11;;;;;;;7.30;5.80;;;;;;;;;;5113541;28;20482;-71
2021/09/21 09:59:41;;;;;;;8.23;4.60;;;;;;;;;;5113965;28;20454;-71
2021/09/21 10:02:10;;;;;;;8.47;6.10;;;;;;;;;;5113814;28;20541;-71
2021/09/21 10:04:41;;;;;;;6.27;5.00;;;;;;;;;;5113529;28;20443;-71
2021/09/21 10:07:12;;;;;;;7.03;4.13;;;;;;;;;;5113438;28;20454;-70
2021/09/21 10:09:46;;;;;;;10.40;5.73;;;;;;;;;;5114120;27;20474;-72
2021/09/21 10:12:19;;;;;;;9.27;5.37;;;;;;;;;;5112348;28;20451;-71
2021/09/21 10:14:55;;;;;;;9.50;6.87;;;;;;;;;;5113838;28;20531;-72
2021/09/21 10:17:27;;;;;;;8.57;6.20;;;;;;;;;;5114515;28;20464;-71
2021/09/21 10:19:58;;;;;;;12.10;6.80;;;;;;;;;;5115070;28;20443;-71
2021/09/21 10:22:38;;;;;;;7.57;5.83;;;;;;;;;;5114161;28;20524;-70
2021/09/21 10:27:54;;;;;;;9.47;6.57;;;;;;;;;;5051478;28;20556;-70
2021/09/21 10:30:26;;;;;;;7.00;5.80;;;;;;;;;;5085303;28;20484;-71
2021/09/21 10:32:54;;;;;;;10.20;6.60;;;;;;;;;;5107389;28;20745;-72
2021/09/21 10:35:39;;;;;;;10.17;5.80;;;;;;;;;;5115236;28;20741;-72
2021/09/21 10:38:17;;;;;;;11.00;7.20;;;;;;;;;;5115131;28;20521;-72
2021/09/21 10:40:46;;;;;;;18.37;7.97;;;;;;;;;;5113896;28;20451;-70
2021/09/21 10:43:30;;;;;;;19.50;10.30;;;;;;;;;;5114180;28;20454;-70
2021/09/21 10:46:09;;;;;;;10.60;7.00;;;;;;;;;;5115795;28;20806;-71
2021/09/21 10:48:39;;;;;;;8.90;6.27;;;;;;;;;;5112398;28;20470;-71
2021/09/21 10:51:09;;;;;;;8.83;6.57;;;;;;;;;;5114438;28;20475;-72
2021/09/21 10:53:38;;;;;;;11.50;6.83;;;;;;;;;;5113819;28;20554;-70
2021/09/21 10:56:10;;;;;;;11.80;7.80;;;;;;;;;;5114592;28;20450;-70
2021/09/21 10:59:11;;;;;;;20.53;11.60;;;;;;;;;;5112790;28;20466;-72
2021/09/21 11:02:06;;;;;;;10.10;8.10;;;;;;;;;;5107430;28;20478;-71
2021/09/21 11:04:45;;;;;;;13.47;7.93;;;;;;;;;;5112609;28;20453;-72
2021/09/21 11:07:19;;;;;;;12.77;8.70;;;;;;;;;;5114882;28;20446;-71
2021/09/21 11:09:51;;;;;;;10.80;7.30;;;;;;;;;;5110726;28;20474;-70
2021/09/21 11:12:26;;;;;;;9.40;6.80;;;;;;;;;;5118865;28;21130;-71
2021/09/21 11:15:02;;;;;;;7.00;5.30;;;;;;;;;;5117774;28;20562;-71
2021/09/21 11:17:31;;;;;;;5.60;4.20;;;;;;;;;;5118248;28;20495;-71
2021/09/21 11:19:59;;;;;;;7.70;5.10;;;;;;;;;;5118302;28;20455;-71
2021/09/21 11:22:29;;;;;;;9.60;5.10;;;;;;;;;;5117302;28;20451;-71
2021/09/21 11:25:00;;;;;;;5.43;3.87;;;;;;;;;;5116249;28;20553;-72
2021/09/21 11:27:57;;;;;;;6.40;4.73;;;;;;;;;;5110105;28;20488;-73
2021/09/21 11:30:38;;;;;;;6.60;3.87;;;;;;;;;;5108654;28;20481;-72
2021/09/21 11:36:09;;;;;;;6.10;4.33;;;;;;;;;;5111247;28;20759;-73
2021/09/21 11:38:46;;;;;;;5.20;3.47;;;;;;;;;;5116981;28;20525;-73
2021/09/21 11:41:21;;;;;;;5.73;2.60;;;;;;;;;;5120830;27;20437;-72
2021/09/21 11:44:09;;;;;;;4.23;3.00;;;;;;;;;;5117553;28;20495;-71
2021/09/21 11:46:42;;;;;;;3.23;2.53;;;;;;;;;;5116068;28;20545;-72
2021/09/21 11:55:29;;;;;;;5.00;2.43;;;;;;;;;;5051229;28;20449;-72
2021/09/21 11:58:01;;;;;;;6.00;3.13;;;;;;;;;;5114743;28;21018;-72
2021/09/21 12:00:30;;;;;;;4.20;2.43;;;;;;;;;;5116730;28;20479;-72
2021/09/21 12:03:16;;;;;;;5.37;3.43;;;;;;;;;;5114776;28;20866;-71
2021/09/21 12:05:45;;;;;;;4.77;3.97;;;;;;;;;;5097533;28;20462;-73
2021/09/21 12:08:26;;;;;;;5.90;4.13;;;;;;;;;;5100612;28;20528;-72
2021/09/21 12:11:20;;;;;;;6.13;3.60;;;;;;;;;;5115196;27;20982;-73
2021/09/21 12:14:06;;;;;;;5.77;4.10;;;;;;;;;;5126386;27;20525;-73
2021/09/21 12:16:35;;;;;;;6.73;3.80;;;;;;;;;;5118786;27;20439;-72
2021/09/21 12:19:03;;;;;;;10.33;5.17;;;;;;;;;;5117668;27;20486;-72
2021/09/21 12:21:35;;;;;;;6.20;3.63;;;;;;;;;;5113583;28;20867;-72
2021/09/21 12:27:25;;;;;;;4.27;3.17;;;;;;;;;;5099646;28;20533;-72
2021/09/21 12:30:21;;;;;;;6.37;3.00;;;;;;;;;;5113400;27;20473;-73
2021/09/21 12:33:08;;;;;;;4.57;3.17;;;;;;;;;;5110749;27;20991;-72
2021/09/21 12:36:01;;;;;;;4.90;4.03;;;;;;;;;;5116363;28;20458;-73
2021/09/21 12:41:44;;;;;;;5.43;3.80;;;;;;;;;;5114435;27;20444;-73
2021/09/21 12:44:15;;;;;;;6.37;3.83;;;;;;;;;;5101817;28;20465;-71
2021/09/21 12:46:56;;;;;;;6.20;4.73;;;;;;;;;;5115421;28;20511;-72
2021/09/21 12:49:45;;;;;;;8.70;4.03;;;;;;;;;;5115937;28;20464;-71
2021/09/21 12:52:14;;;;;;;6.20;4.97;;;;;;;;;;5115796;28;20470;-70
2021/09/21 12:54:52;;;;;;;5.93;4.27;;;;;;;;;;5114678;28;20486;-71
2021/09/21 12:57:26;;;;;;;5.80;3.40;;;;;;;;;;5094735;28;20542;-71
2021/09/21 13:00:03;;;;;;;4.80;3.57;;;;;;;;;;5094887;28;20859;-71
2021/09/21 13:02:34;;;;;;;7.50;4.27;;;;;;;;;;5094693;28;20461;-71
2021/09/21 13:05:09;;;;;;;5.17;3.67;;;;;;;;;;5097572;28;20463;-71
2021/09/21 13:07:54;;;;;;;5.80;3.30;;;;;;;;;;5097319;28;20452;-72
2021/09/21 13:10:24;;;;;;;5.53;3.67;;;;;;;;;;5115983;28;20475;-70
2021/09/21 13:13:03;;;;;;;5.47;4.00;;;;;;;;;;5112827;28;20856;-71
2021/09/21 13:15:37;;;;;;;8.90;3.90;;;;;;;;;;5106640;28;20537;-72
2021/09/21 13:24:22;;;;;;;5.40;3.90;;;;;;;;;;5112958;28;20450;-73
2021/09/21 13:27:24;;;;;;;8.80;3.63;;;;;;;;;;5115971;28;20767;-73
2021/09/21 13:29:59;;;;;;;7.17;3.60;;;;;;;;;;5085255;28;20473;-73
2021/09/21 13:35:50;;;;;;;;;;;;;;;;;;;;;
2021/09/21 13:38:22;;;;;;;7.00;5.43;;;;;;;;;;5114239;28;20455;-72
2021/09/21 13:40:52;;;;;;;8.00;4.57;;;;;;;;;;5114084;28;20529;-71
2021/09/21 13:43:29;;;;;;;6.90;4.60;;;;;;;;;;5116451;28;20462;-71
2021/09/21 13:46:36;;;;;;;6.27;3.57;;;;;;;;;;5111297;28;20482;-72
2021/09/21 13:49:04;;;;;;;6.20;4.80;;;;;;;;;;5114829;28;20458;-72
2021/09/21 13:51:32;;;;;;;5.90;3.20;;;;;;;;;;5114666;28;20734;-72
2021/09/21 13:57:26;;;;;;;;;;;;;;;;;;;;;
2021/09/21 14:00:00;;;;;;;10.10;4.37;;;;;;;;;;5109022;28;20893;-72
2021/09/21 14:02:30;;;;;;;5.33;4.03;;;;;;;;;;5114544;28;20454;-71
2021/09/21 14:05:20;;;;;;;7.80;4.80;;;;;;;;;;5114262;28;20722;-71
2021/09/21 14:08:03;;;;;;;6.63;4.20;;;;;;;;;;5117127;27;20447;-71
2021/09/21 14:10:52;;;;;;;9.70;4.40;;;;;;;;;;5115732;28;20569;-71
2021/09/21 14:13:26;;;;;;;6.90;3.83;;;;;;;;;;5114067;27;20458;-71
2021/09/21 14:15:57;;;;;;;7.13;4.30;;;;;;;;;;5115229;27;20453;-71
2021/09/21 14:18:30;;;;;;;8.20;4.93;;;;;;;;;;5116105;27;20459;-70
2021/09/21 14:20:58;;;;;;;12.30;5.00;;;;;;;;;;5110573;27;20484;-70
2021/09/21 14:23:33;;;;;;;6.40;3.80;;;;;;;;;;5113745;27;20889;-71
2021/09/21 14:26:11;;;;;;;11.90;3.80;;;;;;;;;;5111897;28;20769;-70
2021/09/21 14:28:42;;;;;;;7.50;5.00;;;;;;;;;;5108130;28;20855;-71
2021/09/21 14:31:19;;;;;;;6.40;4.00;;;;;;;;;;5110419;28;20774;-72
2021/09/21 14:34:07;;;;;;;7.70;4.10;;;;;;;;;;5111694;28;20458;-71
2021/09/21 14:36:42;;;;;;;5.60;4.20;;;;;;;;;;5108955;28;20860;-72
2021/09/21 14:39:17;;;;;;;10.23;4.77;;;;;;;;;;5110617;28;20458;-72
2021/09/21 14:41:58;;;;;;;8.03;4.47;;;;;;;;;;5114516;28;20434;-71
2021/09/21 14:44:27;;;;;;;7.63;3.90;;;;;;;;;;5117589;28;20546;-72
2021/09/21 14:46:55;;;;;;;5.70;3.77;;;;;;;;;;5117196;28;20442;-71
2021/09/21 14:49:28;;;;;;;5.33;3.20;;;;;;;;;;5118210;28;20560;-71
2021/09/21 14:52:00;;;;;;;6.07;3.70;;;;;;;;;;5117260;28;20478;-72
2021/09/21 14:54:31;;;;;;;6.77;4.50;;;;;;;;;;5119086;28;20905;-72
2021/09/21 14:56:59;;;;;;;10.03;5.00;;;;;;;;;;5117261;28;21063;-73
2021/09/21 14:59:32;;;;;;;7.83;4.93;;;;;;;;;;5117087;28;20450;-72
2021/09/21 15:08:23;;;;;;;11.77;3.93;;;;;;;;;;5105535;28;20724;-72
2021/09/21 15:11:05;;;;;;;6.03;4.03;;;;;;;;;;5118434;27;20478;-71
2021/09/21 15:13:33;;;;;;;5.80;4.00;;;;;;;;;;5097529;28;20440;-70
2021/09/21 15:16:11;;;;;;;6.70;4.17;;;;;;;;;;5111172;28;20457;-72
2021/09/21 15:18:47;;;;;;;6.80;4.00;;;;;;;;;;5104533;28;20446;-72
2021/09/21 15:21:18;;;;;;;5.90;3.17;;;;;;;;;;5117230;28;20743;-72
2021/09/21 15:23:52;;;;;;;6.70;5.40;;;;;;;;;;5117403;27;20462;-72
2021/09/21 15:26:26;;;;;;;5.70;3.80;;;;;;;;;;5116387;28;21110;-72
2021/09/21 15:28:57;;;;;;;4.47;3.70;;;;;;;;;;5116947;28;20462;-72
2021/09/21 15:31:35;;;;;;;9.47;4.57;;;;;;;;;;5116351;28;20485;-71
2021/09/21 15:34:05;;;;;;;5.13;4.30;;;;;;;;;;5116573;28;20929;-72
2021/09/21 15:36:35;;;;;;;6.70;4.40;;;;;;;;;;5117557;28;20519;-71
2021/09/21 15:39:08;;;;;;;6.30;4.57;;;;;;;;;;5115741;28;20443;-71
2021/09/21 15:41:37;;;;;;;6.60;3.80;;;;;;;;;;5116824;28;20461;-71
2021/09/21 15:44:11;;;;;;;5.23;3.70;;;;;;;;;;5115871;28;20461;-71
2021/09/21 15:46:46;;;;;;;8.50;4.40;;;;;;;;;;5116188;28;20462;-71
2021/09/21 15:49:20;;;;;;;5.90;4.60;;;;;;;;;;5116019;28;20446;-72
2021/09/21 15:51:55;;;;;;;8.50;4.77;;;;;;;;;;5116502;28;20486;-71
2021/09/21 15:54:26;;;;;;;4.60;3.20;;;;;;;;;;5115350;28;20452;-72
2021/09/21 15:56:54;;;;;;;5.33;4.07;;;;;;;;;;5115148;27;20735;-71
2021/09/21 15:59:22;;;;;;;7.47;4.50;;;;;;;;;;5115327;28;20467;-71
2021/09/21 16:02:03;;;;;;;6.17;4.30;;;;;;;;;;5116428;28;20461;-72
2021/09/21 16:04:34;;;;;;;7.13;3.80;;;;;;;;;;5116101;28;20743;-71